Latest Weather Observations for Carnarvon

IDW60801

Issued at 1:03 pm WST Saturday 29 February 2020 (issued every 10 minutes, with the page automatically refreshed every 10 minutes)

About weather observations | Map of weather stations | Latest weather observations for WA | Other Formats
Station Details ID: 006011 Name: CARNARVON AIRPORT Lat: -24.89 Lon: 113.67 Height: 4.0 m
Data from the previous 72 hours. | See also: Recent months at Carnarvon
Date/Time
WST
Temp
°C
App
Temp
°C
Dew
Point
°C
Rel
Hum
%
Delta-T
°C
Wind Press
QNH
hPa
Press
MSL
hPa
Rain since
9am
mm
Dir  Spd
km/h
Gust
km/h
Spd
kts
Gust
kts
29/01:00pm 29.2 28.1 22.4 66 4.6 SW 32 41 17 22 1006.7 1006.7 0.0
29/12:30pm 29.7 27.3 20.3 57 6.2 SSW 33 41 18 22 1006.9 1006.9 0.0
29/12:00pm 29.3 27.5 21.5 63 5.2 SSW 33 43 18 23 1007.2 1007.2 0.0
29/11:30am 29.1 27.2 21.3 62 5.2 SSW 33 41 18 22 1007.5 1007.5 0.0
29/11:00am 28.6 27.3 21.4 65 4.8 SSW 30 37 16 20 1007.7 1007.7 0.0
29/10:30am 28.0 26.3 21.3 67 4.5 SSW 32 37 17 20 1007.9 1007.9 0.0
29/10:00am 27.9 26.5 21.9 70 4.0 SSW 32 39 17 21 1008.1 1008.1 0.0
29/09:30am 27.0 25.6 22.2 75 3.2 SSW 33 44 18 24 1008.0 1008.0 0.0
29/09:00am 26.5 25.0 22.1 77 3.0 SSW 33 41 18 22 1007.9 1007.9 -
29/08:30am 26.3 25.8 22.2 78 2.8 S 28 35 15 19 1007.8 1007.8 -
29/08:00am 25.7 25.1 22.0 80 2.5 S 28 37 15 20 1007.8 1007.8 -
29/07:30am 25.1 25.1 22.4 85 1.8 S 26 33 14 18 1007.8 1007.8 -
29/07:00am 24.6 25.1 22.7 89 1.3 S 24 28 13 15 1007.7 1007.7 -
29/06:30am 24.1 24.4 22.2 89 1.3 S 24 28 13 15 1007.4 1007.4 -
29/06:00am 24.2 24.4 22.1 88 1.4 S 24 32 13 17 1007.3 1007.3 -
29/05:30am 24.0 23.8 21.3 85 1.8 S 24 33 13 18 1007.2 1007.2 -
29/05:00am 24.3 23.8 21.4 84 1.9 SSE 26 37 14 20 1007.0 1007.0 -
29/04:30am 24.7 25.0 22.2 86 1.7 SSE 24 32 13 17 1007.1 1007.1 -
29/04:00am 24.6 25.1 22.7 89 1.3 S 24 33 13 18 1007.1 1007.1 -
29/03:30am 24.4 24.3 22.3 88 1.4 S 26 33 14 18 1006.9 1006.9 -
29/03:00am 24.3 24.7 22.4 89 1.3 S 24 32 13 17 1006.9 1006.9 -
29/02:30am 24.4 24.3 22.3 88 1.4 S 26 32 14 17 1006.9 1006.9 -
29/02:00am 24.5 24.6 22.6 89 1.3 S 26 33 14 18 1007.1 1007.1 -
29/01:30am 24.6 25.1 22.7 89 1.3 S 24 33 13 18 1007.2 1007.2 -
29/01:00am 24.6 25.0 22.5 88 1.4 S 24 32 13 17 1007.3 1007.3 -
29/12:30am 24.6 24.8 22.1 86 1.7 S 24 32 13 17 1007.3 1007.3 -
29/12:00am 24.7 24.1 22.0 85 1.8 S 28 37 15 20 1007.2 1007.2 -
 
Date/Time
WST
Temp
°C
App
Temp
°C
Dew
Point
°C
Rel
Hum
%
Delta-T
°C
Wind Press
QNH
hPa
Press
MSL
hPa
Rain since
9am
mm
Dir  Spd
km/h
Gust
km/h
Spd
kts
Gust
kts
28/11:30pm 24.8 24.4 22.3 86 1.7 S 28 37 15 20 1007.4 1007.4 -
28/11:00pm 25.0 23.9 22.5 86 1.7 SSW 32 39 17 21 1007.4 1007.4 -
28/10:30pm 25.1 24.1 22.6 86 1.7 SSW 32 41 17 22 1007.5 1007.5 -
28/10:00pm 25.2 24.1 22.5 85 1.8 SSW 32 39 17 21 1007.4 1007.4 -
28/09:30pm 25.3 24.2 22.8 86 1.7 SSW 33 43 18 23 1007.5 1007.5 -
28/09:00pm 25.5 25.0 22.8 85 1.8 SSW 30 39 16 21 1007.5 1007.5 0.0
28/08:30pm 25.6 24.7 22.9 85 1.8 SSW 32 39 17 21 1007.3 1007.3 -
28/08:00pm 25.6 24.4 22.3 82 2.2 SSW 32 39 17 21 1007.0 1007.0 -
28/07:30pm 25.8 25.3 22.1 80 2.5 SSW 28 37 15 20 1006.9 1006.9 -
28/07:00pm 25.9 24.3 21.6 77 2.9 SSW 32 39 17 21 1006.7 1006.7 -
28/06:30pm 26.4 24.1 21.2 73 3.4 SSW 35 44 19 24 1006.4 1006.4 -
28/06:00pm 27.4 25.7 21.4 70 4.0 SSW 32 41 17 22 1006.1 1006.1 -
28/05:30pm 27.9 25.9 21.9 70 4.0 SW 35 44 19 24 1005.9 1005.9 -
28/05:00pm 28.7 26.6 21.7 66 4.7 SW 35 41 19 22 1005.9 1005.9 -
28/04:30pm 28.8 27.2 21.8 66 4.7 SW 33 43 18 23 1005.8 1005.8 -
28/04:00pm 29.3 27.8 22.0 64 4.9 SW 33 43 18 23 1005.8 1005.8 -
28/03:30pm 29.1 - 21.3 62 5.2 - - - - - 1006.1 1006.1 -
28/12:00pm 27.8 27.7 22.3 72 3.7 SW 26 33 14 18 1008.5 1008.5 0.0
28/11:30am 28.8 28.5 22.5 68 4.3 SSW 28 35 15 19 1008.6 1008.6 0.0
28/11:00am 28.6 28.6 23.1 72 3.8 SW 28 35 15 19 1008.6 1008.6 0.0
28/10:30am 28.5 28.6 23.2 73 3.6 SSW 28 35 15 19 1008.6 1008.6 0.0
28/10:00am 27.8 27.8 23.0 75 3.3 SSW 28 37 15 20 1008.6 1008.6 0.0
28/09:30am 27.4 27.7 23.0 77 3.0 SSW 26 30 14 16 1008.8 1008.8 0.0
28/09:00am 27.0 28.0 23.5 81 2.4 SSW 24 30 13 16 1008.5 1008.5 0.0
28/08:30am 26.0 27.4 22.9 83 2.1 SSW 20 28 11 15 1008.5 1008.5 0.0
28/08:00am 25.9 27.6 23.4 86 1.7 SSW 20 28 11 15 1008.2 1008.2 0.0
28/07:30am 25.3 26.9 23.2 88 1.4 SSW 20 26 11 14 1008.1 1008.1 0.0
28/07:00am 25.4 27.0 22.9 86 1.7 SSW 19 24 10 13 1008.0 1008.0 0.0
28/06:30am 24.9 25.8 22.6 87 1.5 SSW 22 28 12 15 1007.6 1007.6 0.0
28/06:00am 25.0 26.0 22.9 88 1.4 SSW 22 28 12 15 1007.2 1007.2 0.0
28/05:30am 24.8 26.1 22.7 88 1.4 SSW 20 28 11 15 1007.1 1007.1 0.0
28/05:00am 25.0 26.4 22.9 88 1.4 SSW 20 26 11 14 1007.0 1007.0 0.0
28/04:30am 24.9 26.5 22.8 88 1.4 S 19 24 10 13 1007.2 1007.2 0.0
28/04:00am 25.1 26.8 23.0 88 1.4 S 19 24 10 13 1007.3 1007.3 0.0
28/03:30am 25.2 26.8 23.3 89 1.3 S 20 26 11 14 1007.2 1007.2 0.0
28/03:00am 25.1 26.9 23.3 90 1.2 S 19 24 10 13 1007.2 1007.2 0.0
28/02:30am 25.1 26.5 23.5 91 1.1 S 22 28 12 15 1007.4 1007.4 0.0
28/02:15am 25.1 26.9 23.5 91 1.1 S 20 28 11 15 1007.5 1007.5 0.0
28/02:00am 25.2 26.6 23.6 91 1.1 S 22 30 12 16 1007.5 1007.5 0.0
28/01:30am 25.1 26.3 23.9 93 0.8 SSW 24 32 13 17 1007.3 1007.3 0.0
28/01:00am 25.1 26.1 24.1 94 0.7 SSW 26 35 14 19 1007.3 1007.3 0.0
28/12:30am 25.0 25.4 23.8 93 0.8 SSW 28 37 15 20 1007.4 1007.4 0.0
28/12:00am 25.1 25.7 24.1 94 0.7 SSW 28 35 15 19 1007.4 1007.4 0.0
 
Date/Time
WST
Temp
°C
App
Temp
°C
Dew
Point
°C
Rel
Hum
%
Delta-T
°C
Wind Press
QNH
hPa
Press
MSL
hPa
Rain since
9am
mm
Dir  Spd
km/h
Gust
km/h
Spd
kts
Gust
kts
27/11:30pm 25.2 25.7 24.0 93 0.8 SSW 28 35 15 19 1007.6 1007.6 0.0
27/11:00pm 25.2 25.5 24.2 94 0.7 SSW 30 37 16 20 1007.5 1007.5 0.0
27/10:30pm 25.3 26.4 24.3 94 0.7 SW 26 35 14 19 1007.9 1007.9 0.0
27/10:00pm 25.2 25.7 24.0 93 0.8 SW 28 41 15 22 1007.5 1007.5 0.0
27/09:30pm 25.4 25.5 24.0 92 1.0 SW 30 39 16 21 1007.9 1007.9 0.0
27/09:24pm 25.4 25.7 24.2 93 0.8 SW 30 41 16 22 1007.9 1007.9 0.0
27/09:00pm 25.6 25.7 24.0 91 1.1 SW 30 39 16 21 1007.8 1007.8 0.0
27/08:30pm 25.9 26.5 24.1 90 1.2 SW 28 35 15 19 1007.5 1007.5 0.0
27/08:00pm 26.1 26.6 24.0 88 1.4 SW 28 37 15 20 1007.5 1007.5 0.0
27/07:30pm 26.1 27.2 24.3 90 1.2 SW 26 37 14 20 1007.0 1007.0 0.0
27/07:00pm 26.2 26.8 24.1 88 1.4 SW 28 37 15 20 1006.8 1006.8 0.0
27/06:30pm 26.7 26.8 24.0 85 1.9 SW 30 37 16 20 1006.4 1006.4 0.0
27/06:00pm 27.3 27.7 23.7 81 2.5 SW 28 37 15 20 1006.4 1006.4 0.0
27/05:30pm 28.0 28.3 24.2 80 2.6 SW 30 37 16 20 1006.2 1006.2 0.0
27/05:00pm 28.2 28.5 24.2 79 2.8 SW 30 39 16 21 1006.0 1006.0 0.0
27/04:30pm 28.8 29.2 24.4 77 3.1 SW 30 35 16 19 1006.0 1006.0 0.0
27/04:00pm 28.9 29.2 24.2 76 3.3 SW 30 35 16 19 1005.9 1005.9 0.0
27/03:30pm 29.5 30.1 24.1 72 3.7 SW 28 37 15 20 1006.0 1006.0 0.0
27/03:00pm 30.0 31.1 24.4 72 3.9 SW 26 33 14 18 1006.2 1006.2 0.0
27/02:30pm 30.3 31.3 24.2 70 4.2 SW 26 33 14 18 1006.3 1006.3 0.0
27/02:00pm 30.1 30.3 23.5 67 4.6 SW 28 35 15 19 1006.5 1006.5 0.0
27/01:30pm 29.5 30.1 23.4 69 4.2 SW 26 32 14 17 1006.9 1006.9 0.0
27/01:00pm 29.7 30.6 23.9 71 4.0 SW 26 33 14 18 1007.2 1007.2 0.0
27/12:30pm 29.0 28.7 23.2 71 4.0 SSW 30 35 16 19 1007.2 1007.2 0.0
27/12:00pm 28.9 28.5 23.1 71 4.0 SW 30 39 16 21 1007.2 1007.2 0.0
27/11:30am 28.6 28.7 23.3 73 3.6 SW 28 35 15 19 1007.4 1007.4 0.0
27/11:00am 27.8 27.8 23.0 75 3.3 SW 28 33 15 18 1007.7 1007.7 0.0
27/10:30am 28.3 28.7 23.2 74 3.5 SW 26 35 14 19 1007.6 1007.6 0.0
27/10:00am 27.6 27.9 23.6 79 2.7 SW 28 33 15 18 1007.8 1007.8 0.0
27/09:56am 27.2 27.8 23.4 80 2.6 SW 26 35 14 19 1007.8 1007.8 0.0
27/09:30am 27.1 27.9 23.8 82 2.3 SSW 26 33 14 18 1007.8 1007.8 0.0
27/09:00am 26.4 26.8 23.7 85 1.9 SSW 28 33 15 18 1008.1 1008.1 0.0
27/08:30am 26.3 27.4 24.3 89 1.4 SSW 26 33 14 18 1008.0 1008.0 0.0
27/08:00am 25.8 26.6 24.4 92 1.0 SSW 28 33 15 18 1007.8 1007.8 0.0
27/07:30am 25.4 26.5 24.4 94 0.7 SSW 26 35 14 19 1007.7 1007.7 0.0
27/07:00am 25.2 25.9 24.3 95 0.6 SSW 28 33 15 18 1007.3 1007.3 0.0
27/06:32am 25.0 26.1 24.3 96 0.5 SW 26 32 14 17 1006.9 1006.9 0.0
27/06:30am 25.1 26.2 24.4 96 0.5 SW 26 35 14 19 1006.9 1006.9 0.0
27/06:00am 25.0 26.0 24.1 95 0.6 SW 26 35 14 19 1006.7 1006.7 0.0
27/05:30am 25.1 25.7 24.1 94 0.7 SW 28 37 15 20 1006.1 1006.1 0.0
27/05:00am 25.2 26.5 24.0 93 0.8 SW 24 30 13 16 1006.4 1006.4 0.0
27/04:30am 25.3 26.4 23.7 91 1.1 SSW 24 32 13 17 1006.0 1006.0 0.0
27/04:00am 25.3 25.5 23.5 90 1.2 SW 28 35 15 19 1006.1 1006.1 0.0
27/03:30am 25.4 26.1 23.6 90 1.2 SW 26 33 14 18 1006.3 1006.3 0.0
27/03:00am 25.6 26.4 23.8 90 1.2 SW 26 33 14 18 1006.5 1006.5 0.0
27/02:30am 25.5 27.0 24.3 93 0.8 SSW 24 30 13 16 1006.6 1006.6 0.0
27/02:00am 25.3 26.3 24.1 93 0.8 SW 26 33 14 18 1006.5 1006.5 0.0
27/01:30am 25.5 27.1 24.5 94 0.7 SW 24 32 13 17 1006.5 1006.5 0.0
27/01:00am 25.5 26.8 24.6 95 0.6 SW 26 33 14 18 1006.6 1006.6 0.0
27/12:30am 25.5 26.8 24.6 95 0.6 SSW 26 33 14 18 1006.7 1006.7 0.0
27/12:00am 25.6 26.7 24.9 96 0.5 SSW 28 35 15 19 1006.9 1006.9 0.0
 
Date/Time
WST
Temp
°C
App
Temp
°C
Dew
Point
°C
Rel
Hum
%
Delta-T
°C
Wind Press
QNH
hPa
Press
MSL
hPa
Rain since
9am
mm
Dir  Spd
km/h
Gust
km/h
Spd
kts
Gust
kts
26/11:30pm 25.6 26.8 25.1 97 0.3 SW 28 37 15 20 1007.0 1007.0 0.0
26/11:18pm 25.6 26.4 25.1 97 0.3 SW 30 37 16 20 1007.1 1007.1 0.0
26/11:00pm 25.6 26.3 24.9 96 0.5 SSW 30 37 16 20 1007.1 1007.1 0.0
26/10:30pm 25.7 26.1 25.0 96 0.5 SSW 32 39 17 21 1007.4 1007.4 0.0
26/10:00pm 25.8 26.1 24.8 94 0.7 SSW 32 44 17 24 1007.5 1007.5 0.0
26/09:37pm 25.8 25.9 24.6 93 0.8 SSW 32 44 17 24 1007.4 1007.4 0.0
26/09:30pm 25.9 25.8 24.5 92 1.0 SW 33 44 18 24 1007.4 1007.4 0.0
26/09:00pm 26.0 25.2 24.6 92 1.0 SW 37 44 20 24 1007.2 1007.2 0.0
26/08:30pm 26.2 26.3 24.6 91 1.1 SW 32 43 17 23 1006.9 1006.9 0.0
26/08:00pm 26.6 26.6 24.4 88 1.5 SW 32 39 17 21 1006.6 1006.6 0.0
26/07:30pm 26.9 27.3 24.4 86 1.7 SW 30 39 16 21 1006.5 1006.5 0.0
26/07:00pm 27.3 28.1 24.4 84 2.0 SW 28 39 15 21 1006.1 1006.1 0.0
26/06:30pm 27.6 27.5 24.2 82 2.4 SW 32 41 17 22 1005.9 1005.9 0.0
26/06:00pm 28.4 28.5 24.0 77 3.0 SW 30 37 16 20 1005.9 1005.9 0.0
26/05:30pm 29.2 29.0 24.3 75 3.4 SW 33 41 18 22 1006.0 1006.0 0.0
26/05:00pm 29.3 29.0 24.2 74 3.5 SW 33 46 18 25 1005.8 1005.8 0.0
26/04:30pm 30.0 29.5 23.9 70 4.2 SW 33 44 18 24 1005.8 1005.8 0.0
26/04:00pm 30.1 29.8 23.8 69 4.4 SW 32 41 17 22 1005.7 1005.7 0.0
26/03:30pm 30.9 30.7 24.1 67 4.7 SW 32 41 17 22 1005.9 1005.9 0.0
26/03:00pm 30.8 29.9 22.9 62 5.4 SW 32 43 17 23 1006.1 1006.1 0.0
26/02:30pm 30.6 29.7 23.8 67 4.7 SW 35 44 19 24 1006.3 1006.3 0.0
26/02:00pm 29.7 29.0 23.6 69 4.2 SW 33 43 18 23 1006.5 1006.5 0.0
26/01:30pm 29.7 29.2 23.6 69 4.2 SW 32 39 17 21 1006.9 1006.9 0.0

Other formats

Comma delimited format used in spreadsheet applications
http://www.bom.gov.au/fwo/IDW60801/IDW60801.94300.axf

JavaScript Object Notation format (JSON) in row-major order
http://www.bom.gov.au/fwo/IDW60801/IDW60801.94300.json

Data quality

Most of these data are generated automatically and are frequently updated. Quality checks on data are not normally performed. It is possible for incorrect values to appear. Refer to information at About Latest Weather Observations and please check the disclaimer before using these data.